Midale, Canada
Current Conditions -  °F | °C
As of 5:00 AM on Friday 24 Oct 2014 (Local Time) from CYEN Reporting Station
Broken Clouds Broken Clouds  
Wind Chill: 52°   Ceiling: 7000
Heat Index: 52°   Visibility: 15mi
Dew Point: 39°   Wind: 12mph
Humidity: 62%   Direction: 230°SW
Pressure: 29.74"   Gusts: NA
Location:  49.39°N, 103.41°W
Report Text: CYEN 241100Z 23010KT 15SM BKN070 11/04 A2974 RMK AC6 SLP080
Loading
Personal Weather Stations






























Interactive Weather Map
Tropical Storm Tracking
New forecast layout! Learn more

10-Day Weather Forecast

Advertisements
Track Severe Weather on mobile